createdAt,value
2019-02-20T00:00:31.684Z,101869.02
2019-02-20T00:03:00.674Z,101863.70
2019-02-20T00:05:28.758Z,101870.42
2019-02-20T00:07:57.219Z,101868.33
2019-02-20T00:10:25.276Z,101868.26
2019-02-20T00:12:53.366Z,101874.99
2019-02-20T00:15:21.445Z,101879.01
2019-02-20T00:17:50.219Z,101885.30
2019-02-20T00:20:18.762Z,101886.21
2019-02-20T00:22:46.847Z,101882.91
2019-02-20T00:25:14.923Z,101887.76
2019-02-20T00:27:43.026Z,101884.27
2019-02-20T00:30:11.232Z,101886.34
2019-02-20T00:32:39.486Z,101877.02
2019-02-20T00:35:07.570Z,101876.22
2019-02-20T00:37:38.699Z,101875.84
2019-02-20T00:40:07.160Z,101884.08
2019-02-20T00:42:35.382Z,101888.62
2019-02-20T00:45:22.076Z,101888.38
2019-02-20T00:48:12.545Z,101885.92
2019-02-20T00:50:41.526Z,101896.38
2019-02-20T00:53:17.878Z,101881.36
2019-02-20T00:55:46.058Z,101889.05
2019-02-20T00:58:14.163Z,101879.37
2019-02-20T01:00:42.239Z,101894.17
2019-02-20T01:03:11.105Z,101901.53
2019-02-20T01:05:39.313Z,101904.30
2019-02-20T01:08:07.709Z,101906.82
2019-02-20T01:10:35.816Z,101906.27
2019-02-20T01:13:04.238Z,101916.47
2019-02-20T01:15:32.602Z,101909.95
2019-02-20T01:18:00.956Z,101913.75
2019-02-20T01:20:29.350Z,101908.98
2019-02-20T01:22:59.889Z,101911.56
2019-02-20T01:25:27.785Z,101906.25
2019-02-20T01:27:55.994Z,101909.70
2019-02-20T01:30:24.076Z,101897.05
2019-02-20T01:32:52.212Z,101896.12
2019-02-20T01:35:20.324Z,101891.56
2019-02-20T01:37:48.448Z,101890.66
2019-02-20T01:40:16.538Z,101893.19
2019-02-20T01:42:44.705Z,101900.08
2019-02-20T01:45:12.881Z,101895.59
2019-02-20T01:47:40.952Z,101893.73
2019-02-20T01:50:09.138Z,101891.56
2019-02-20T01:52:37.561Z,101901.06
2019-02-20T01:55:06.811Z,101894.25
2019-02-20T01:57:34.972Z,101881.92
2019-02-20T02:00:04.713Z,101875.25
2019-02-20T02:02:32.761Z,101877.01
2019-02-20T02:05:01.204Z,101880.97
2019-02-20T02:07:29.479Z,101878.92
2019-02-20T02:09:57.599Z,101875.55
2019-02-20T02:12:25.675Z,101869.34
2019-02-20T02:14:53.956Z,101873.30
2019-02-20T02:17:22.099Z,101870.52
2019-02-20T02:19:50.169Z,101874.19
2019-02-20T02:22:18.411Z,101878.23
2019-02-20T02:24:46.505Z,101882.73
2019-02-20T02:27:14.589Z,101881.20
2019-02-20T02:29:42.692Z,101876.45
2019-02-20T02:32:10.925Z,101879.89
2019-02-20T02:34:39.235Z,101876.61
2019-02-20T02:37:08.915Z,101877.57
2019-02-20T02:39:37.050Z,101874.91
2019-02-20T02:42:05.349Z,101879.13
2019-02-20T02:44:34.035Z,101870.69
2019-02-20T02:47:02.253Z,101875.21
2019-02-20T02:49:30.337Z,101872.42
2019-02-20T02:51:58.488Z,101873.55
2019-02-20T02:54:26.606Z,101877.66
2019-02-20T02:56:54.699Z,101872.19
2019-02-20T02:59:24.780Z,101870.87
2019-02-20T03:01:52.974Z,101870.45
2019-02-20T03:04:21.028Z,101868.16
2019-02-20T03:06:49.905Z,101859.95
2019-02-20T03:09:18.041Z,101861.78
2019-02-20T03:11:46.217Z,101861.74
2019-02-20T03:14:14.302Z,101870.69
2019-02-20T03:16:42.421Z,101869.03
2019-02-20T03:19:10.912Z,101871.78
2019-02-20T03:21:40.392Z,101876.28
2019-02-20T03:24:09.263Z,101876.42
2019-02-20T03:26:37.451Z,101880.76
2019-02-20T03:29:05.828Z,101872.59
2019-02-20T03:31:34.232Z,101875.89
2019-02-20T03:34:02.563Z,101884.33
2019-02-20T03:36:30.706Z,101879.38
2019-02-20T03:38:59.594Z,101876.66
2019-02-20T03:41:27.719Z,101881.89
2019-02-20T03:43:56.687Z,101875.34
2019-02-20T03:46:24.869Z,101870.73
2019-02-20T03:48:53.190Z,101876.94
2019-02-20T03:51:21.264Z,101884.48
2019-02-20T03:53:51.869Z,101877.44
2019-02-20T03:56:19.633Z,101876.59
2019-02-20T03:58:47.909Z,101879.38
2019-02-20T04:01:16.136Z,101881.42
2019-02-20T04:03:44.351Z,101888.17
2019-02-20T04:06:12.563Z,101885.84
2019-02-20T04:08:40.634Z,101893.83
2019-02-20T04:11:08.771Z,101891.89
2019-02-20T04:13:36.992Z,101892.39
2019-02-20T04:16:05.525Z,101892.01
2019-02-20T04:18:33.917Z,101893.83
2019-02-20T04:21:02.104Z,101888.98
2019-02-20T04:23:30.570Z,101901.15
2019-02-20T04:25:59.281Z,101897.08
2019-02-20T04:28:27.655Z,101889.80
2019-02-20T04:30:55.842Z,101899.87
2019-02-20T04:33:23.980Z,101898.32
2019-02-20T04:35:52.149Z,101901.03
2019-02-20T04:38:20.250Z,101892.83
2019-02-20T04:40:48.750Z,101896.43
2019-02-20T04:43:16.884Z,101897.97
2019-02-20T04:45:45.316Z,101899.14
2019-02-20T04:48:13.429Z,101895.03
2019-02-20T04:50:41.991Z,101895.06
2019-02-20T04:53:10.035Z,101896.31
2019-02-20T04:55:38.280Z,101896.11
2019-02-20T04:58:20.770Z,101892.70
2019-02-20T05:00:48.969Z,101887.94
2019-02-20T05:03:17.063Z,101889.84
2019-02-20T05:05:45.104Z,101897.27
2019-02-20T05:08:13.321Z,101899.64
2019-02-20T05:10:41.503Z,101894.91
2019-02-20T05:13:09.922Z,101894.80
2019-02-20T05:15:38.034Z,101894.99
2019-02-20T05:18:06.126Z,101892.94
2019-02-20T05:20:34.571Z,101894.49
2019-02-20T05:23:02.773Z,101898.87
2019-02-20T05:25:32.386Z,101895.66
2019-02-20T05:28:04.356Z,101901.53
2019-02-20T05:30:32.565Z,101900.80
2019-02-20T05:33:00.862Z,101896.50
2019-02-20T05:35:28.971Z,101903.66
2019-02-20T05:37:57.092Z,101908.61
2019-02-20T05:40:25.454Z,101907.31
2019-02-20T05:42:53.577Z,101909.28
2019-02-20T05:45:21.933Z,101908.88
2019-02-20T05:47:50.050Z,101910.73
2019-02-20T05:50:18.349Z,101911.59
2019-02-20T05:52:46.424Z,101912.95
2019-02-20T05:55:14.813Z,101915.95
2019-02-20T05:57:42.914Z,101911.77
2019-02-20T06:00:11.245Z,101916.95
2019-02-20T06:02:39.535Z,101912.48
2019-02-20T06:05:07.907Z,101916.55
2019-02-20T06:07:37.077Z,101917.70
2019-02-20T06:10:07.195Z,101912.83
2019-02-20T06:12:35.331Z,101920.63
2019-02-20T06:15:03.920Z,101920.96
2019-02-20T06:17:32.021Z,101920.08
2019-02-20T06:20:00.519Z,101918.31
2019-02-20T06:22:29.006Z,101928.95
2019-02-20T06:24:57.190Z,101930.27
2019-02-20T06:27:25.394Z,101931.25
2019-02-20T06:29:53.739Z,101929.21
2019-02-20T06:32:24.088Z,101937.28
2019-02-20T06:34:54.253Z,101930.41
2019-02-20T06:37:23.237Z,101937.45
2019-02-20T06:39:52.108Z,101948.90
2019-02-20T06:42:20.177Z,101957.54
2019-02-20T06:44:48.843Z,101947.58
2019-02-20T06:47:18.503Z,101952.56
2019-02-20T06:49:46.687Z,101952.63
2019-02-20T06:52:16.205Z,101949.71
2019-02-20T06:54:53.303Z,101956.42
2019-02-20T06:57:15.061Z,101950.09
2019-02-20T06:59:43.143Z,101951.70
2019-02-20T07:02:11.652Z,101950.61
2019-02-20T07:04:59.405Z,101953.78
2019-02-20T07:08:30.343Z,101961.54
2019-02-20T07:11:29.818Z,101966.69
2019-02-20T07:14:33.540Z,101968.83
2019-02-20T07:17:37.959Z,101970.34
2019-02-20T07:21:22.250Z,101977.28
2019-02-20T07:24:52.342Z,101972.55
2019-02-20T07:28:10.851Z,101971.79
2019-02-20T07:30:38.913Z,101986.81
2019-02-20T07:33:07.065Z,101981.75
2019-02-20T07:35:35.168Z,101980.34
2019-02-20T07:38:03.590Z,101981.98
2019-02-20T07:40:31.942Z,101986.84
2019-02-20T07:43:00.113Z,101988.71
2019-02-20T07:45:28.739Z,101990.27
2019-02-20T07:47:57.239Z,101995.14
2019-02-20T07:50:27.674Z,101995.95
2019-02-20T07:52:55.738Z,101993.24
2019-02-20T07:55:23.887Z,101998.12
2019-02-20T07:57:52.013Z,101999.11
2019-02-20T08:00:20.412Z,102006.05
2019-02-20T08:02:48.775Z,102006.20
2019-02-20T08:05:17.330Z,102007.40
2019-02-20T08:07:45.416Z,102012.98
2019-02-20T08:10:13.895Z,102008.75
2019-02-20T08:12:42.102Z,102015.78
2019-02-20T08:15:17.319Z,102024.23
2019-02-20T08:17:45.410Z,102029.85
2019-02-20T08:20:13.814Z,102030.86
2019-02-20T08:22:42.030Z,102035.20
2019-02-20T08:25:10.697Z,102039.66
2019-02-20T08:27:39.272Z,102046.84
2019-02-20T08:30:12.284Z,102046.80
2019-02-20T08:32:40.672Z,102056.30
2019-02-20T08:35:09.557Z,102048.04
2019-02-20T08:37:38.428Z,102060.34
2019-02-20T08:40:10.275Z,102064.61
2019-02-20T08:42:40.528Z,102068.37
2019-02-20T08:45:11.790Z,102077.21
2019-02-20T08:47:40.485Z,102085.44
2019-02-20T08:50:10.355Z,102084.20
2019-02-20T08:52:38.729Z,102083.50
2019-02-20T08:55:07.425Z,102084.89
2019-02-20T08:57:35.491Z,102095.64
2019-02-20T09:00:07.459Z,102093.93
2019-02-20T09:02:35.578Z,102106.08
2019-02-20T09:05:04.501Z,102108.13
2019-02-20T09:07:32.605Z,102102.51
2019-02-20T09:10:00.709Z,102109.53
2019-02-20T09:12:29.283Z,102108.54
2019-02-20T09:14:57.429Z,102112.68
2019-02-20T09:17:25.559Z,102117.19
2019-02-20T09:19:54.020Z,102124.66
2019-02-20T09:22:22.171Z,102120.94
2019-02-20T09:24:50.441Z,102127.01
2019-02-20T09:27:19.067Z,102129.16
2019-02-20T09:29:47.149Z,102133.21
2019-02-20T09:32:15.361Z,102132.78
2019-02-20T09:34:43.798Z,102137.69
2019-02-20T09:37:11.972Z,102136.63
2019-02-20T09:39:40.249Z,102135.96
2019-02-20T09:42:11.521Z,102138.18
2019-02-20T09:44:48.804Z,102136.43
2019-02-20T09:47:18.549Z,102146.36
2019-02-20T09:50:05.157Z,102146.13
2019-02-20T09:52:33.695Z,102150.33
2019-02-20T09:55:02.076Z,102153.46
2019-02-20T09:57:30.228Z,102159.85
2019-02-20T09:59:58.491Z,102164.30
2019-02-20T10:02:26.749Z,102164.30
2019-02-20T10:04:56.652Z,102163.98
2019-02-20T10:07:24.732Z,102165.11
2019-02-20T10:09:53.835Z,102176.91
2019-02-20T10:12:22.527Z,102175.41
2019-02-20T10:14:50.609Z,102177.95
2019-02-20T10:17:20.484Z,102173.87
2019-02-20T10:19:48.741Z,102175.86
2019-02-20T10:22:17.826Z,102174.92
2019-02-20T10:24:45.956Z,102173.75
2019-02-20T10:27:14.978Z,102177.52
2019-02-20T10:29:43.150Z,102179.68
2019-02-20T10:32:11.893Z,102185.30
2019-02-20T10:34:40.225Z,102184.89
2019-02-20T10:37:27.302Z,102190.88
2019-02-20T10:40:09.357Z,102189.61
2019-02-20T10:42:56.161Z,102190.58
2019-02-20T10:45:24.357Z,102192.61
2019-02-20T10:48:11.050Z,102195.27
2019-02-20T10:50:40.939Z,102201.22
2019-02-20T10:53:27.844Z,102197.23
2019-02-20T10:55:56.116Z,102197.48
2019-02-20T10:58:25.990Z,102201.60
2019-02-20T11:00:56.159Z,102197.89
2019-02-20T11:03:39.817Z,102197.16
2019-02-20T11:06:08.112Z,102195.92
2019-02-20T11:08:54.616Z,102196.13
2019-02-20T11:11:38.311Z,102195.48
2019-02-20T11:14:07.483Z,102190.77
2019-02-20T11:16:37.486Z,102189.48
2019-02-20T11:19:08.272Z,102190.77
2019-02-20T11:21:54.882Z,102192.31
2019-02-20T11:24:41.575Z,102191.30
2019-02-20T11:27:28.335Z,102188.30
2019-02-20T11:30:14.312Z,102191.73
2019-02-20T11:33:01.050Z,102192.02
2019-02-20T11:35:38.027Z,102195.61
2019-02-20T11:38:24.771Z,102185.58
2019-02-20T11:40:53.455Z,102189.01
2019-02-20T11:43:21.537Z,102189.57
2019-02-20T11:45:49.737Z,102186.13
2019-02-20T11:48:18.104Z,102189.45
2019-02-20T11:50:46.218Z,102189.25
2019-02-20T11:53:16.858Z,102185.75
2019-02-20T11:55:45.018Z,102178.90
2019-02-20T11:58:13.406Z,102184.20
2019-02-20T12:00:41.745Z,102185.65
2019-02-20T12:03:09.881Z,102177.57
2019-02-20T12:05:37.958Z,102186.53
2019-02-20T12:08:06.747Z,102181.56
2019-02-20T12:10:36.625Z,102185.16
2019-02-20T12:13:05.515Z,102185.75
2019-02-20T12:15:33.610Z,102184.78
2019-02-20T12:18:01.667Z,102188.64
2019-02-20T12:20:30.221Z,102184.91
2019-02-20T12:22:58.357Z,102186.56
2019-02-20T12:25:26.535Z,102183.22
2019-02-20T12:27:54.619Z,102183.56
2019-02-20T12:30:22.748Z,102187.81
2019-02-20T12:32:51.200Z,102195.19
2019-02-20T12:35:19.354Z,102189.97
2019-02-20T12:37:47.474Z,102195.93
2019-02-20T12:40:15.554Z,102197.27
2019-02-20T12:42:43.958Z,102192.95
2019-02-20T12:45:12.129Z,102196.39
2019-02-20T12:47:40.248Z,102197.68
2019-02-20T12:50:08.612Z,102193.99
2019-02-20T12:52:36.710Z,102188.12
2019-02-20T12:55:05.911Z,102192.54
2019-02-20T12:57:35.506Z,102190.69
2019-02-20T13:00:04.699Z,102194.12
2019-02-20T13:02:33.888Z,102184.23
2019-02-20T13:05:02.422Z,102189.29
2019-02-20T13:07:30.737Z,102187.72
2019-02-20T13:09:59.532Z,102184.38
2019-02-20T13:12:27.723Z,102186.45
2019-02-20T13:14:55.858Z,102182.20
2019-02-20T13:17:24.064Z,102187.23
2019-02-20T13:19:52.183Z,102188.30
2019-02-20T13:22:20.374Z,102186.70
2019-02-20T13:24:48.495Z,102186.93
2019-02-20T13:27:22.647Z,102189.44
2019-02-20T13:29:47.040Z,102183.42
2019-02-20T13:32:16.814Z,102185.34
2019-02-20T13:34:44.841Z,102183.52
2019-02-20T13:37:13.050Z,102185.92
2019-02-20T13:39:41.552Z,102184.41
2019-02-20T13:42:09.724Z,102185.97
2019-02-20T13:44:38.217Z,102189.73
2019-02-20T13:47:06.523Z,102175.67
2019-02-20T13:49:34.597Z,102180.66
2019-02-20T13:52:03.338Z,102173.94
2019-02-20T13:54:31.809Z,102176.52
2019-02-20T13:57:02.194Z,102170.02
2019-02-20T13:59:31.105Z,102170.40
2019-02-20T14:01:59.183Z,102175.50
2019-02-20T14:04:27.315Z,102172.90
2019-02-20T14:06:55.940Z,102175.83
2019-02-20T14:09:24.239Z,102180.88
2019-02-20T14:11:52.408Z,102185.97
2019-02-20T14:14:20.689Z,102181.10
2019-02-20T14:16:48.964Z,102181.84
2019-02-20T14:19:17.053Z,102178.89
2019-02-20T14:21:46.245Z,102171.86
2019-02-20T14:24:14.338Z,102172.20
2019-02-20T14:26:42.426Z,102176.84
2019-02-20T14:29:10.680Z,102178.77
2019-02-20T14:31:38.985Z,102175.23
2019-02-20T14:34:07.172Z,102177.74
2019-02-20T14:36:35.454Z,102182.84
2019-02-20T14:39:05.075Z,102181.17
2019-02-20T14:41:33.526Z,102180.84
2019-02-20T14:44:02.031Z,102188.55
2019-02-20T14:46:30.443Z,102182.01
2019-02-20T14:48:58.622Z,102185.70
2019-02-20T14:51:27.726Z,102186.98
2019-02-20T14:53:55.922Z,102193.95
2019-02-20T14:56:23.998Z,102186.44
2019-02-20T14:58:52.092Z,102193.73
2019-02-20T15:01:20.236Z,102194.16
2019-02-20T15:03:48.272Z,102186.36
2019-02-20T15:06:16.459Z,102185.25
2019-02-20T15:08:44.937Z,102188.70
2019-02-20T15:11:13.100Z,102193.91
2019-02-20T15:13:41.358Z,102192.14
2019-02-20T15:16:09.495Z,102191.17
2019-02-20T15:18:37.645Z,102185.39
2019-02-20T15:21:05.682Z,102190.22
2019-02-20T15:23:34.493Z,102191.98
2019-02-20T15:26:02.962Z,102193.42
2019-02-20T15:28:31.057Z,102185.25
2019-02-20T15:30:59.156Z,102185.64
2019-02-20T15:33:27.368Z,102191.33
2019-02-20T15:35:55.980Z,102187.25
2019-02-20T15:38:24.167Z,102185.23
2019-02-20T15:40:52.475Z,102187.32
2019-02-20T15:43:21.037Z,102188.20
2019-02-20T15:45:49.095Z,102188.47
2019-02-20T15:48:23.081Z,102192.13
2019-02-20T15:50:47.322Z,102187.42
2019-02-20T15:53:15.437Z,102185.31
2019-02-20T15:55:44.067Z,102190.15
2019-02-20T15:58:12.273Z,102187.65
2019-02-20T16:00:41.472Z,102189.11
2019-02-20T16:03:09.752Z,102198.80
2019-02-20T16:05:37.829Z,102196.95
2019-02-20T16:08:07.303Z,102190.13
2019-02-20T16:10:36.071Z,102196.79
2019-02-20T16:13:06.198Z,102192.31
2019-02-20T16:15:34.611Z,102195.95
2019-02-20T16:18:04.506Z,102196.92
2019-02-20T16:20:33.663Z,102194.32
2019-02-20T16:23:01.803Z,102199.39
2019-02-20T16:25:29.896Z,102200.75
2019-02-20T16:27:58.084Z,102202.12
2019-02-20T16:30:26.391Z,102205.98
2019-02-20T16:32:54.819Z,102208.61
2019-02-20T16:35:22.966Z,102216.14
2019-02-20T16:37:51.042Z,102214.93
2019-02-20T16:40:19.114Z,102208.76
2019-02-20T16:42:47.201Z,102214.22
2019-02-20T16:45:23.593Z,102203.96
2019-02-20T16:47:52.181Z,102207.45
2019-02-20T16:50:20.744Z,102202.33
2019-02-20T16:52:48.957Z,102195.84
2019-02-20T16:55:22.518Z,102195.24
2019-02-20T16:57:55.918Z,102201.02
2019-02-20T17:00:19.029Z,102208.33
2019-02-20T17:02:47.193Z,102209.70
2019-02-20T17:05:16.017Z,102216.02
2019-02-20T17:07:45.157Z,102217.65
2019-02-20T17:10:14.151Z,102215.96
2019-02-20T17:12:42.261Z,102218.05
2019-02-20T17:15:15.546Z,102222.94
2019-02-20T17:17:43.921Z,102219.95
2019-02-20T17:20:13.011Z,102228.45
2019-02-20T17:22:41.044Z,102233.28
2019-02-20T17:25:10.414Z,102233.84
2019-02-20T17:27:38.513Z,102240.02
2019-02-20T17:30:09.029Z,102246.59
2019-02-20T17:32:37.296Z,102248.00
2019-02-20T17:35:06.224Z,102244.34
2019-02-20T17:37:34.296Z,102244.31
2019-02-20T17:40:03.722Z,102244.94
2019-02-20T17:42:31.781Z,102240.80
2019-02-20T17:45:01.750Z,102247.68
2019-02-20T17:47:29.828Z,102244.72
2019-02-20T17:49:57.973Z,102244.30
2019-02-20T17:52:26.056Z,102249.86
2019-02-20T17:54:54.091Z,102258.23
2019-02-20T17:57:22.546Z,102257.20
2019-02-20T17:59:50.568Z,102259.89
2019-02-20T18:02:18.697Z,102248.17
2019-02-20T18:04:46.806Z,102250.03
2019-02-20T18:07:16.676Z,102258.62
2019-02-20T18:09:45.054Z,102253.40
2019-02-20T18:12:13.169Z,102263.86
2019-02-20T18:14:44.379Z,102263.48
2019-02-20T18:17:12.477Z,102260.67
2019-02-20T18:19:40.569Z,102260.62
2019-02-20T18:22:08.777Z,102259.81
2019-02-20T18:24:36.812Z,102270.94
2019-02-20T18:27:04.939Z,102265.11
2019-02-20T18:29:33.324Z,102255.78
2019-02-20T18:32:01.408Z,102256.59
2019-02-20T18:34:29.655Z,102256.77
2019-02-20T18:36:57.794Z,102256.24
2019-02-20T18:39:25.961Z,102262.56
2019-02-20T18:41:54.098Z,102255.80
2019-02-20T18:44:22.453Z,102260.49
2019-02-20T18:46:50.574Z,102258.47
2019-02-20T18:49:20.927Z,102265.11
2019-02-20T18:51:48.663Z,102259.83
2019-02-20T18:54:16.709Z,102263.75
2019-02-20T18:56:45.033Z,102263.38
2019-02-20T18:59:13.989Z,102262.91
2019-02-20T19:01:42.060Z,102269.71
2019-02-20T19:04:10.443Z,102265.62
2019-02-20T19:06:38.645Z,102268.58
2019-02-20T19:09:24.302Z,102277.47
2019-02-20T19:12:58.887Z,102274.44
2019-02-20T19:16:07.594Z,102279.62
2019-02-20T19:19:14.718Z,102280.08
2019-02-20T19:22:56.518Z,102281.08
2019-02-20T19:26:35.721Z,102277.72
2019-02-20T19:30:10.036Z,102278.59
2019-02-20T19:33:10.866Z,102286.84
2019-02-20T19:36:41.044Z,102282.39
2019-02-20T19:39:35.304Z,102284.89
2019-02-20T19:43:12.605Z,102276.63
2019-02-20T19:46:08.038Z,102281.99
2019-02-20T19:49:14.077Z,102281.21
2019-02-20T19:52:15.996Z,102282.39
2019-02-20T19:55:25.795Z,102278.53
2019-02-20T19:58:41.640Z,102277.00
2019-02-20T20:01:52.056Z,102274.64
2019-02-20T20:04:53.411Z,102274.50
2019-02-20T20:08:11.477Z,102270.50
2019-02-20T20:11:20.212Z,102268.09
2019-02-20T20:14:54.491Z,102266.60
2019-02-20T20:18:21.890Z,102263.25
2019-02-20T20:21:59.027Z,102265.23
2019-02-20T20:25:07.849Z,102272.67
2019-02-20T20:28:52.551Z,102269.83
2019-02-20T20:31:55.843Z,102274.45
2019-02-20T20:35:17.477Z,102270.69
2019-02-20T20:38:19.995Z,102271.19
2019-02-20T20:41:50.153Z,102270.23
2019-02-20T20:45:18.710Z,102264.56
2019-02-20T20:48:48.728Z,102261.70
2019-02-20T20:52:15.691Z,102261.57
2019-02-20T20:55:30.146Z,102265.42
2019-02-20T20:58:42.298Z,102263.80
2019-02-20T21:02:11.137Z,102273.05
2019-02-20T21:05:37.442Z,102267.96
2019-02-20T21:09:01.228Z,102270.19
2019-02-20T21:12:10.393Z,102272.45
2019-02-20T21:15:35.494Z,102269.33
2019-02-20T21:18:52.671Z,102265.33
2019-02-20T21:22:33.966Z,102271.60
2019-02-20T21:25:54.030Z,102274.63
2019-02-20T21:29:16.881Z,102274.91
2019-02-20T21:32:52.423Z,102275.00
2019-02-20T21:36:14.081Z,102279.03
2019-02-20T21:39:51.319Z,102279.71
2019-02-20T21:43:02.297Z,102280.08
2019-02-20T21:46:13.682Z,102284.48
2019-02-20T21:49:28.735Z,102278.95
2019-02-20T21:53:05.769Z,102283.17
2019-02-20T21:55:59.164Z,102289.30
2019-02-20T21:59:21.217Z,102289.61
2019-02-20T22:02:23.055Z,102292.59
2019-02-20T22:05:44.279Z,102288.93
2019-02-20T22:08:50.431Z,102289.75
2019-02-20T22:12:04.118Z,102287.89
2019-02-20T22:15:26.198Z,102290.06
2019-02-20T22:18:38.976Z,102290.55
2019-02-20T22:22:23.164Z,102292.70
2019-02-20T22:25:35.954Z,102299.09
2019-02-20T22:29:16.595Z,102300.77
2019-02-20T22:32:51.322Z,102290.84
2019-02-20T22:36:14.872Z,102293.06
2019-02-20T22:39:21.863Z,102294.06
2019-02-20T22:42:49.853Z,102292.83
2019-02-20T22:46:05.410Z,102289.80
2019-02-20T22:49:46.665Z,102296.78
2019-02-20T22:52:30.901Z,102297.77
2019-02-20T22:56:08.684Z,102295.42
2019-02-20T22:59:30.333Z,102300.86
2019-02-20T23:02:42.072Z,102296.77
2019-02-20T23:06:10.500Z,102295.91
2019-02-20T23:09:26.545Z,102296.41
2019-02-20T23:12:52.257Z,102290.59
2019-02-20T23:15:20.409Z,102294.50
2019-02-20T23:17:48.598Z,102298.39
2019-02-20T23:20:16.706Z,102289.05
2019-02-20T23:22:45.768Z,102289.90
2019-02-20T23:25:13.947Z,102290.96
2019-02-20T23:27:42.202Z,102295.05
2019-02-20T23:30:13.179Z,102292.21
2019-02-20T23:32:43.037Z,102290.36
2019-02-20T23:35:10.714Z,102291.73
2019-02-20T23:37:38.787Z,102287.06
2019-02-20T23:40:07.387Z,102290.96
2019-02-20T23:42:35.524Z,102287.05
2019-02-20T23:45:04.443Z,102290.96
2019-02-20T23:47:33.544Z,102296.86
2019-02-20T23:50:01.642Z,102300.80
2019-02-20T23:52:29.779Z,102297.89
2019-02-20T23:54:57.849Z,102299.25
2019-02-20T23:57:26.266Z,102299.25
2019-02-20T23:59:54.449Z,102296.39
